Hauptseite
METAR-TAF:

METAR-TAF

Flughäfen :

Fliegerhorst Hinterstoisser

Zeltweg, Österreich

Breite: 47-12N, Länge: 014-45E, Höhe: 677 m

Beobachtung

Neuester Wetterbericht von vor 51 Minuten, um 19:50 UTC
Wind 2 kt aus unterschiedlichen Richtungen
Temperatur 4°C
Luftfeuchtigkeit 56%
Luftdruck 1017 hPa

METAR: LOXZ 031950Z VRB02KT 30KM FEW060SC 04/M04 Q1017

Zeit: 22:41 (20:41 UTC)

Prognose

Neuester Wetterbericht von vor 9 Stunden und 26 Minuten, um 11:15 UTC
Gültige Prognose vom 03 um 12 UTC bis 03 um 21 UTC
Wind 8 kt aus Ost/Nordost
Sichtweite 10 km oder mehr
Aufgelockert bewölkt in der Höhe von 8000 ft
Zeitweise
vom 03 um 12 UTC bis 03 um 16 UTC
Wind 12 kt aus West/Nordwest
Leicht bewölkt in der Höhe von 6000 ft
Durchbrochene Bewölkung in der Höhe von 7500 ft

TAF: LOXZ 031115Z 0312/0321 07008KT 9999 SCT080 TEMPO 0312/0316 30012KT FEW060 BKN075

Wetterbeobachtungen und Prognosen von mehr als 4000 Flughäfen (METAR und TAF Bericht).

Die verfügbaren Stationen werden durch gelbe und rote Markierungen auf der Karte dargestellt.

Führen Sie die Maus auf sie, um den Namen der Station zu sehen.

Darauf klicken, um die Beobachtung von Wetterbeobachtungen und Prognosen zu sehen.

Um die Karte zu ändern : klicken Sie auf den grünen Tasten mit einem schwarzen Kreuz Zum Vergrößern, auf den grünen Button mit einem Gedankenstrich zu verkleinern, oder auf die grünen Pfeile für benachbarte Karten.


METAR-TAF: